sensor_id;sensor_type;location;lat;lon;timestamp;temperature;humidity
65291;SHT30;51893;59.754;10.110;2022-12-18T00:00:47;-3.27;80.10
65291;SHT30;51893;59.754;10.110;2022-12-18T00:03:39;-3.24;79.93
65291;SHT30;51893;59.754;10.110;2022-12-18T00:06:07;-3.24;79.93
65291;SHT30;51893;59.754;10.110;2022-12-18T00:08:35;-3.29;79.91
65291;SHT30;51893;59.754;10.110;2022-12-18T00:11:03;-3.32;79.99
65291;SHT30;51893;59.754;10.110;2022-12-18T00:13:38;-3.39;80.05
65291;SHT30;51893;59.754;10.110;2022-12-18T00:16:06;-3.44;80.04
65291;SHT30;51893;59.754;10.110;2022-12-18T00:18:40;-3.44;80.16
65291;SHT30;51893;59.754;10.110;2022-12-18T00:21:11;-3.46;80.26
65291;SHT30;51893;59.754;10.110;2022-12-18T00:23:41;-3.42;80.30
65291;SHT30;51893;59.754;10.110;2022-12-18T00:26:14;-3.38;80.19
65291;SHT30;51893;59.754;10.110;2022-12-18T00:28:45;-3.40;80.15
65291;SHT30;51893;59.754;10.110;2022-12-18T00:31:17;-3.42;80.26
65291;SHT30;51893;59.754;10.110;2022-12-18T00:33:51;-3.42;80.27
65291;SHT30;51893;59.754;10.110;2022-12-18T00:36:27;-3.44;80.25
65291;SHT30;51893;59.754;10.110;2022-12-18T00:39:02;-3.49;80.31
65291;SHT30;51893;59.754;10.110;2022-12-18T00:41:32;-3.57;80.49
65291;SHT30;51893;59.754;10.110;2022-12-18T00:44:19;-3.61;80.60
65291;SHT30;51893;59.754;10.110;2022-12-18T00:46:50;-3.66;80.60
65291;SHT30;51893;59.754;10.110;2022-12-18T00:49:25;-3.67;80.61
65291;SHT30;51893;59.754;10.110;2022-12-18T00:51:58;-3.68;80.55
65291;SHT30;51893;59.754;10.110;2022-12-18T00:54:25;-3.70;80.50
65291;SHT30;51893;59.754;10.110;2022-12-18T00:56:59;-3.73;80.42
65291;SHT30;51893;59.754;10.110;2022-12-18T00:59:30;-3.74;80.45
65291;SHT30;51893;59.754;10.110;2022-12-18T01:02:00;-3.70;80.39
65291;SHT30;51893;59.754;10.110;2022-12-18T01:04:31;-3.75;80.43
65291;SHT30;51893;59.754;10.110;2022-12-18T01:06:59;-3.79;80.35
65291;SHT30;51893;59.754;10.110;2022-12-18T01:09:27;-3.88;80.25
65291;SHT30;51893;59.754;10.110;2022-12-18T01:11:57;-3.87;80.30
65291;SHT30;51893;59.754;10.110;2022-12-18T01:14:25;-4.02;80.32
65291;SHT30;51893;59.754;10.110;2022-12-18T01:16:53;-4.02;80.64
65291;SHT30;51893;59.754;10.110;2022-12-18T01:19:24;-4.01;80.58
65291;SHT30;51893;59.754;10.110;2022-12-18T01:21:52;-3.97;80.70
65291;SHT30;51893;59.754;10.110;2022-12-18T01:24:21;-3.96;80.57
65291;SHT30;51893;59.754;10.110;2022-12-18T01:26:50;-4.01;80.49
65291;SHT30;51893;59.754;10.110;2022-12-18T01:29:19;-4.08;80.93
65291;SHT30;51893;59.754;10.110;2022-12-18T01:31:46;-4.04;81.06
65291;SHT30;51893;59.754;10.110;2022-12-18T01:34:13;-4.05;80.95
65291;SHT30;51893;59.754;10.110;2022-12-18T01:36:41;-4.14;81.03
65291;SHT30;51893;59.754;10.110;2022-12-18T01:39:13;-4.16;81.20
65291;SHT30;51893;59.754;10.110;2022-12-18T01:41:45;-4.14;81.35
65291;SHT30;51893;59.754;10.110;2022-12-18T01:47:34;-4.20;81.38
65291;SHT30;51893;59.754;10.110;2022-12-18T01:52:56;-4.22;81.30
65291;SHT30;51893;59.754;10.110;2022-12-18T01:55:32;-4.16;81.36
65291;SHT30;51893;59.754;10.110;2022-12-18T01:58:08;-4.10;81.16
65291;SHT30;51893;59.754;10.110;2022-12-18T02:00:37;-4.05;81.06
65291;SHT30;51893;59.754;10.110;2022-12-18T02:03:07;-4.06;81.00
65291;SHT30;51893;59.754;10.110;2022-12-18T02:05:40;-4.11;81.11
65291;SHT30;51893;59.754;10.110;2022-12-18T02:08:34;-4.19;81.19
65291;SHT30;51893;59.754;10.110;2022-12-18T02:17:07;-4.20;81.82
65291;SHT30;51893;59.754;10.110;2022-12-18T02:29:26;-4.37;82.03
65291;SHT30;51893;59.754;10.110;2022-12-18T02:32:05;-4.35;82.11
65291;SHT30;51893;59.754;10.110;2022-12-18T02:34:47;-4.39;82.12
65291;SHT30;51893;59.754;10.110;2022-12-18T02:37:24;-4.41;82.14
65291;SHT30;51893;59.754;10.110;2022-12-18T02:39:58;-4.43;82.21
65291;SHT30;51893;59.754;10.110;2022-12-18T02:42:30;-4.42;82.19
65291;SHT30;51893;59.754;10.110;2022-12-18T02:44:58;-4.44;82.13
65291;SHT30;51893;59.754;10.110;2022-12-18T02:47:29;-4.44;82.12
65291;SHT30;51893;59.754;10.110;2022-12-18T02:56:30;-4.46;82.02
65291;SHT30;51893;59.754;10.110;2022-12-18T02:59:15;-4.45;81.97
65291;SHT30;51893;59.754;10.110;2022-12-18T03:01:57;-4.42;81.91
65291;SHT30;51893;59.754;10.110;2022-12-18T03:04:39;-4.52;81.82
65291;SHT30;51893;59.754;10.110;2022-12-18T03:07:40;-4.68;82.17
65291;SHT30;51893;59.754;10.110;2022-12-18T03:10:21;-4.75;82.38
65291;SHT30;51893;59.754;10.110;2022-12-18T03:13:12;-4.77;82.60
65291;SHT30;51893;59.754;10.110;2022-12-18T03:15:55;-4.75;82.61
65291;SHT30;51893;59.754;10.110;2022-12-18T03:18:36;-4.73;82.67
65291;SHT30;51893;59.754;10.110;2022-12-18T03:21:28;-4.76;82.82
65291;SHT30;51893;59.754;10.110;2022-12-18T03:24:08;-4.78;82.91
65291;SHT30;51893;59.754;10.110;2022-12-18T03:26:41;-4.78;83.02
65291;SHT30;51893;59.754;10.110;2022-12-18T03:29:20;-4.77;82.71
65291;SHT30;51893;59.754;10.110;2022-12-18T03:31:56;-4.85;82.52
65291;SHT30;51893;59.754;10.110;2022-12-18T03:34:53;-4.90;82.48
65291;SHT30;51893;59.754;10.110;2022-12-18T03:37:34;-4.95;82.47
65291;SHT30;51893;59.754;10.110;2022-12-18T03:40:02;-5.05;82.68
65291;SHT30;51893;59.754;10.110;2022-12-18T03:45:42;-5.09;82.97
65291;SHT30;51893;59.754;10.110;2022-12-18T03:48:40;-5.11;83.00
65291;SHT30;51893;59.754;10.110;2022-12-18T03:51:18;-5.25;82.90
65291;SHT30;51893;59.754;10.110;2022-12-18T03:54:24;-5.23;82.84
65291;SHT30;51893;59.754;10.110;2022-12-18T03:56:59;-5.19;82.63
65291;SHT30;51893;59.754;10.110;2022-12-18T03:59:33;-5.16;82.50
65291;SHT30;51893;59.754;10.110;2022-12-18T04:02:04;-5.22;82.25
65291;SHT30;51893;59.754;10.110;2022-12-18T04:04:35;-5.22;82.26
65291;SHT30;51893;59.754;10.110;2022-12-18T04:07:07;-5.30;82.13
65291;SHT30;51893;59.754;10.110;2022-12-18T04:09:36;-5.26;82.26
65291;SHT30;51893;59.754;10.110;2022-12-18T04:12:11;-5.19;82.36
65291;SHT30;51893;59.754;10.110;2022-12-18T04:14:39;-5.24;82.33
65291;SHT30;51893;59.754;10.110;2022-12-18T04:17:08;-5.24;82.36
65291;SHT30;51893;59.754;10.110;2022-12-18T04:19:36;-5.28;82.45
65291;SHT30;51893;59.754;10.110;2022-12-18T04:22:03;-5.32;82.50
65291;SHT30;51893;59.754;10.110;2022-12-18T04:24:31;-5.39;82.51
65291;SHT30;51893;59.754;10.110;2022-12-18T04:26:58;-5.40;82.61
65291;SHT30;51893;59.754;10.110;2022-12-18T04:29:24;-5.35;82.58
65291;SHT30;51893;59.754;10.110;2022-12-18T04:31:52;-5.31;82.44
65291;SHT30;51893;59.754;10.110;2022-12-18T04:34:20;-5.38;82.28
65291;SHT30;51893;59.754;10.110;2022-12-18T04:36:49;-5.43;82.38
65291;SHT30;51893;59.754;10.110;2022-12-18T04:39:18;-5.41;82.47
65291;SHT30;51893;59.754;10.110;2022-12-18T04:41:55;-5.35;82.50
65291;SHT30;51893;59.754;10.110;2022-12-18T04:44:24;-5.34;82.41
65291;SHT30;51893;59.754;10.110;2022-12-18T04:46:52;-5.35;82.45
65291;SHT30;51893;59.754;10.110;2022-12-18T04:49:22;-5.38;82.48
65291;SHT30;51893;59.754;10.110;2022-12-18T04:51:56;-5.38;82.43
65291;SHT30;51893;59.754;10.110;2022-12-18T04:54:25;-5.35;82.40
65291;SHT30;51893;59.754;10.110;2022-12-18T04:57:00;-5.34;82.43
65291;SHT30;51893;59.754;10.110;2022-12-18T04:59:29;-5.32;82.07
65291;SHT30;51893;59.754;10.110;2022-12-18T05:01:58;-5.33;81.91
65291;SHT30;51893;59.754;10.110;2022-12-18T05:04:26;-5.38;81.87
65291;SHT30;51893;59.754;10.110;2022-12-18T05:06:53;-5.47;81.81
65291;SHT30;51893;59.754;10.110;2022-12-18T05:09:23;-5.58;81.97
65291;SHT30;51893;59.754;10.110;2022-12-18T05:12:00;-5.64;82.19
65291;SHT30;51893;59.754;10.110;2022-12-18T05:14:28;-5.68;82.35
65291;SHT30;51893;59.754;10.110;2022-12-18T05:17:14;-5.66;82.50
65291;SHT30;51893;59.754;10.110;2022-12-18T05:19:42;-5.60;82.38
65291;SHT30;51893;59.754;10.110;2022-12-18T05:22:12;-5.56;82.22
65291;SHT30;51893;59.754;10.110;2022-12-18T05:24:40;-5.58;82.21
65291;SHT30;51893;59.754;10.110;2022-12-18T05:27:07;-5.63;82.36
65291;SHT30;51893;59.754;10.110;2022-12-18T05:29:38;-5.58;82.47
65291;SHT30;51893;59.754;10.110;2022-12-18T05:32:06;-5.53;82.34
65291;SHT30;51893;59.754;10.110;2022-12-18T05:34:34;-5.49;82.17
65291;SHT30;51893;59.754;10.110;2022-12-18T05:37:02;-5.47;81.92
65291;SHT30;51893;59.754;10.110;2022-12-18T05:39:30;-5.42;81.75
65291;SHT30;51893;59.754;10.110;2022-12-18T05:41:57;-5.38;81.38
65291;SHT30;51893;59.754;10.110;2022-12-18T05:44:24;-5.36;80.95
65291;SHT30;51893;59.754;10.110;2022-12-18T05:47:01;-5.35;80.61
65291;SHT30;51893;59.754;10.110;2022-12-18T05:49:33;-5.34;80.25
65291;SHT30;51893;59.754;10.110;2022-12-18T05:52:00;-5.33;79.88
65291;SHT30;51893;59.754;10.110;2022-12-18T05:54:27;-5.32;80.00
65291;SHT30;51893;59.754;10.110;2022-12-18T05:56:55;-5.26;79.73
65291;SHT30;51893;59.754;10.110;2022-12-18T05:59:23;-5.33;79.14
65291;SHT30;51893;59.754;10.110;2022-12-18T06:01:52;-5.52;79.05
65291;SHT30;51893;59.754;10.110;2022-12-18T06:04:19;-5.59;79.24
65291;SHT30;51893;59.754;10.110;2022-12-18T06:06:50;-5.65;79.24
65291;SHT30;51893;59.754;10.110;2022-12-18T06:09:22;-5.69;79.05
65291;SHT30;51893;59.754;10.110;2022-12-18T06:11:51;-5.72;78.93
65291;SHT30;51893;59.754;10.110;2022-12-18T06:14:19;-5.81;79.35
65291;SHT30;51893;59.754;10.110;2022-12-18T06:16:50;-5.83;79.55
65291;SHT30;51893;59.754;10.110;2022-12-18T06:19:18;-5.98;79.45
65291;SHT30;51893;59.754;10.110;2022-12-18T06:21:46;-6.09;79.77
65291;SHT30;51893;59.754;10.110;2022-12-18T06:24:14;-6.24;79.95
65291;SHT30;51893;59.754;10.110;2022-12-18T06:26:44;-6.33;80.18
65291;SHT30;51893;59.754;10.110;2022-12-18T06:29:12;-6.37;80.57
65291;SHT30;51893;59.754;10.110;2022-12-18T06:31:40;-6.46;80.89
65291;SHT30;51893;59.754;10.110;2022-12-18T06:34:07;-6.53;81.62
65291;SHT30;51893;59.754;10.110;2022-12-18T06:36:34;-6.52;81.96
65291;SHT30;51893;59.754;10.110;2022-12-18T06:39:01;-6.52;82.19
65291;SHT30;51893;59.754;10.110;2022-12-18T06:41:31;-6.50;82.16
65291;SHT30;51893;59.754;10.110;2022-12-18T06:43:57;-6.51;82.38
65291;SHT30;51893;59.754;10.110;2022-12-18T06:46:28;-6.42;82.19
65291;SHT30;51893;59.754;10.110;2022-12-18T06:48:55;-6.43;82.15
65291;SHT30;51893;59.754;10.110;2022-12-18T06:51:24;-6.37;82.04
65291;SHT30;51893;59.754;10.110;2022-12-18T06:53:53;-6.34;81.66
65291;SHT30;51893;59.754;10.110;2022-12-18T06:56:22;-6.40;80.86
65291;SHT30;51893;59.754;10.110;2022-12-18T06:58:50;-6.32;80.55
65291;SHT30;51893;59.754;10.110;2022-12-18T07:01:17;-6.23;80.14
65291;SHT30;51893;59.754;10.110;2022-12-18T07:03:57;-6.26;79.65
65291;SHT30;51893;59.754;10.110;2022-12-18T07:06:25;-6.33;79.47
65291;SHT30;51893;59.754;10.110;2022-12-18T07:08:54;-6.34;79.87
65291;SHT30;51893;59.754;10.110;2022-12-18T07:11:21;-6.41;79.85
65291;SHT30;51893;59.754;10.110;2022-12-18T07:13:49;-6.48;79.95
65291;SHT30;51893;59.754;10.110;2022-12-18T07:16:19;-6.62;79.77
65291;SHT30;51893;59.754;10.110;2022-12-18T07:18:55;-6.62;79.79
65291;SHT30;51893;59.754;10.110;2022-12-18T07:21:24;-6.65;79.58
65291;SHT30;51893;59.754;10.110;2022-12-18T07:23:53;-6.66;79.44
65291;SHT30;51893;59.754;10.110;2022-12-18T07:26:21;-6.80;79.28
65291;SHT30;51893;59.754;10.110;2022-12-18T07:28:56;-6.76;79.71
65291;SHT30;51893;59.754;10.110;2022-12-18T07:31:23;-6.77;79.29
65291;SHT30;51893;59.754;10.110;2022-12-18T07:33:54;-6.86;79.27
65291;SHT30;51893;59.754;10.110;2022-12-18T07:36:20;-6.89;79.55
65291;SHT30;51893;59.754;10.110;2022-12-18T07:38:50;-6.84;79.38
65291;SHT30;51893;59.754;10.110;2022-12-18T07:41:20;-6.89;78.83
65291;SHT30;51893;59.754;10.110;2022-12-18T07:43:49;-6.80;78.71
65291;SHT30;51893;59.754;10.110;2022-12-18T07:46:17;-6.68;78.41
65291;SHT30;51893;59.754;10.110;2022-12-18T07:48:47;-6.58;77.85
65291;SHT30;51893;59.754;10.110;2022-12-18T07:51:18;-6.64;77.69
65291;SHT30;51893;59.754;10.110;2022-12-18T07:53:47;-6.79;77.31
65291;SHT30;51893;59.754;10.110;2022-12-18T07:56:18;-6.85;77.16
65291;SHT30;51893;59.754;10.110;2022-12-18T07:58:56;-6.83;76.90
65291;SHT30;51893;59.754;10.110;2022-12-18T08:01:27;-6.76;76.80
65291;SHT30;51893;59.754;10.110;2022-12-18T08:03:54;-6.76;76.90
65291;SHT30;51893;59.754;10.110;2022-12-18T08:06:24;-6.83;76.80
65291;SHT30;51893;59.754;10.110;2022-12-18T08:09:00;-6.96;77.19
65291;SHT30;51893;59.754;10.110;2022-12-18T08:11:29;-7.15;78.01
65291;SHT30;51893;59.754;10.110;2022-12-18T08:14:12;-7.25;79.15
65291;SHT30;51893;59.754;10.110;2022-12-18T08:16:41;-7.28;79.45
65291;SHT30;51893;59.754;10.110;2022-12-18T08:19:09;-7.29;79.71
65291;SHT30;51893;59.754;10.110;2022-12-18T08:21:41;-7.22;80.25
65291;SHT30;51893;59.754;10.110;2022-12-18T08:24:12;-7.19;81.06
65291;SHT30;51893;59.754;10.110;2022-12-18T08:26:39;-7.22;81.46
65291;SHT30;51893;59.754;10.110;2022-12-18T08:29:08;-7.16;81.68
65291;SHT30;51893;59.754;10.110;2022-12-18T08:31:39;-7.18;81.89
65291;SHT30;51893;59.754;10.110;2022-12-18T08:34:11;-7.13;81.99
65291;SHT30;51893;59.754;10.110;2022-12-18T08:36:39;-7.07;81.91
65291;SHT30;51893;59.754;10.110;2022-12-18T08:39:07;-6.96;81.74
65291;SHT30;51893;59.754;10.110;2022-12-18T08:41:34;-6.95;80.97
65291;SHT30;51893;59.754;10.110;2022-12-18T08:44:07;-7.04;80.51
65291;SHT30;51893;59.754;10.110;2022-12-18T08:46:56;-7.04;80.50
65291;SHT30;51893;59.754;10.110;2022-12-18T08:49:24;-6.91;80.60
65291;SHT30;51893;59.754;10.110;2022-12-18T08:51:56;-6.78;80.33
65291;SHT30;51893;59.754;10.110;2022-12-18T08:54:25;-6.72;80.03
65291;SHT30;51893;59.754;10.110;2022-12-18T08:57:00;-6.73;80.06
65291;SHT30;51893;59.754;10.110;2022-12-18T08:59:28;-6.66;80.46
65291;SHT30;51893;59.754;10.110;2022-12-18T09:01:54;-6.69;80.95
65291;SHT30;51893;59.754;10.110;2022-12-18T09:04:25;-6.72;82.20
65291;SHT30;51893;59.754;10.110;2022-12-18T09:06:53;-6.69;82.40
65291;SHT30;51893;59.754;10.110;2022-12-18T09:09:22;-6.69;82.72
65291;SHT30;51893;59.754;10.110;2022-12-18T09:11:51;-6.74;83.14
65291;SHT30;51893;59.754;10.110;2022-12-18T09:14:19;-6.69;82.71
65291;SHT30;51893;59.754;10.110;2022-12-18T09:16:52;-6.71;81.83
65291;SHT30;51893;59.754;10.110;2022-12-18T09:19:22;-6.76;81.03
65291;SHT30;51893;59.754;10.110;2022-12-18T09:21:51;-6.71;80.52
65291;SHT30;51893;59.754;10.110;2022-12-18T09:24:20;-6.75;80.55
65291;SHT30;51893;59.754;10.110;2022-12-18T09:26:47;-6.75;80.60
65291;SHT30;51893;59.754;10.110;2022-12-18T09:29:23;-6.72;80.52
65291;SHT30;51893;59.754;10.110;2022-12-18T09:31:52;-6.65;80.28
65291;SHT30;51893;59.754;10.110;2022-12-18T09:34:18;-6.59;79.77
65291;SHT30;51893;59.754;10.110;2022-12-18T09:36:49;-6.54;79.39
65291;SHT30;51893;59.754;10.110;2022-12-18T09:39:17;-6.65;78.80
65291;SHT30;51893;59.754;10.110;2022-12-18T09:41:56;-6.72;78.90
65291;SHT30;51893;59.754;10.110;2022-12-18T09:47:25;-6.94;78.68
65291;SHT30;51893;59.754;10.110;2022-12-18T09:50:24;-7.02;78.74
65291;SHT30;51893;59.754;10.110;2022-12-18T09:53:10;-7.06;78.89
65291;SHT30;51893;59.754;10.110;2022-12-18T09:55:53;-7.16;78.77
65291;SHT30;51893;59.754;10.110;2022-12-18T09:58:32;-7.14;79.30
65291;SHT30;51893;59.754;10.110;2022-12-18T10:01:10;-7.12;79.59
65291;SHT30;51893;59.754;10.110;2022-12-18T10:03:43;-7.15;79.64
65291;SHT30;51893;59.754;10.110;2022-12-18T10:06:32;-7.17;79.85
65291;SHT30;51893;59.754;10.110;2022-12-18T10:17:58;-7.04;81.36
65291;SHT30;51893;59.754;10.110;2022-12-18T10:20:51;-7.00;81.25
65291;SHT30;51893;59.754;10.110;2022-12-18T10:23:33;-6.89;80.90
65291;SHT30;51893;59.754;10.110;2022-12-18T10:26:29;-6.80;80.87
65291;SHT30;51893;59.754;10.110;2022-12-18T10:29:00;-6.73;81.03
65291;SHT30;51893;59.754;10.110;2022-12-18T10:31:31;-6.72;81.39
65291;SHT30;51893;59.754;10.110;2022-12-18T10:33:58;-6.49;80.83
65291;SHT30;51893;59.754;10.110;2022-12-18T10:36:25;-6.36;79.67
65291;SHT30;51893;59.754;10.110;2022-12-18T10:39:36;-6.43;78.92
65291;SHT30;51893;59.754;10.110;2022-12-18T10:42:09;-6.49;78.64
65291;SHT30;51893;59.754;10.110;2022-12-18T10:44:45;-6.58;78.76
65291;SHT30;51893;59.754;10.110;2022-12-18T10:47:28;-6.71;78.74
65291;SHT30;51893;59.754;10.110;2022-12-18T10:49:55;-6.75;78.86
65291;SHT30;51893;59.754;10.110;2022-12-18T10:52:25;-6.82;79.15
65291;SHT30;51893;59.754;10.110;2022-12-18T10:54:57;-6.93;79.36
65291;SHT30;51893;59.754;10.110;2022-12-18T10:57:39;-7.03;79.32
65291;SHT30;51893;59.754;10.110;2022-12-18T11:02:58;-7.04;79.37
65291;SHT30;51893;59.754;10.110;2022-12-18T11:05:30;-6.93;79.34
65291;SHT30;51893;59.754;10.110;2022-12-18T11:08:00;-6.87;79.29
65291;SHT30;51893;59.754;10.110;2022-12-18T11:10:32;-6.88;79.56
65291;SHT30;51893;59.754;10.110;2022-12-18T11:13:30;-6.84;80.33
65291;SHT30;51893;59.754;10.110;2022-12-18T11:15:59;-6.80;80.50
65291;SHT30;51893;59.754;10.110;2022-12-18T11:18:29;-6.73;80.31
65291;SHT30;51893;59.754;10.110;2022-12-18T11:21:06;-6.67;79.92
65291;SHT30;51893;59.754;10.110;2022-12-18T11:23:59;-6.61;79.39
65291;SHT30;51893;59.754;10.110;2022-12-18T11:26:33;-6.59;79.00
65291;SHT30;51893;59.754;10.110;2022-12-18T11:29:09;-6.44;78.94
65291;SHT30;51893;59.754;10.110;2022-12-18T11:31:44;-6.47;79.04
65291;SHT30;51893;59.754;10.110;2022-12-18T11:34:26;-6.39;78.47
65291;SHT30;51893;59.754;10.110;2022-12-18T11:36:59;-6.40;78.12
65291;SHT30;51893;59.754;10.110;2022-12-18T11:39:31;-6.48;78.13
65291;SHT30;51893;59.754;10.110;2022-12-18T11:44:54;-6.84;78.07
65291;SHT30;51893;59.754;10.110;2022-12-18T11:47:55;-6.82;78.96
65291;SHT30;51893;59.754;10.110;2022-12-18T11:53:26;-6.95;80.21
65291;SHT30;51893;59.754;10.110;2022-12-18T12:11:25;-6.65;80.04
65291;SHT30;51893;59.754;10.110;2022-12-18T12:14:33;-6.59;80.74
65291;SHT30;51893;59.754;10.110;2022-12-18T12:26:22;-6.65;81.69
65291;SHT30;51893;59.754;10.110;2022-12-18T12:35:13;-6.58;80.02
65291;SHT30;51893;59.754;10.110;2022-12-18T12:38:42;-6.64;80.04
65291;SHT30;51893;59.754;10.110;2022-12-18T12:41:19;-6.71;80.53
65291;SHT30;51893;59.754;10.110;2022-12-18T12:44:15;-6.63;81.55
65291;SHT30;51893;59.754;10.110;2022-12-18T12:47:07;-6.51;82.40
65291;SHT30;51893;59.754;10.110;2022-12-18T12:49:44;-6.44;82.37
65291;SHT30;51893;59.754;10.110;2022-12-18T12:52:15;-6.36;81.81
65291;SHT30;51893;59.754;10.110;2022-12-18T12:54:57;-6.26;81.22
65291;SHT30;51893;59.754;10.110;2022-12-18T12:57:43;-6.22;80.91
65291;SHT30;51893;59.754;10.110;2022-12-18T13:00:23;-6.22;80.66
65291;SHT30;51893;59.754;10.110;2022-12-18T13:09:18;-6.39;82.33
65291;SHT30;51893;59.754;10.110;2022-12-18T13:11:47;-6.38;83.02
65291;SHT30;51893;59.754;10.110;2022-12-18T13:14:35;-6.41;82.51
65291;SHT30;51893;59.754;10.110;2022-12-18T13:22:48;-6.41;81.57
65291;SHT30;51893;59.754;10.110;2022-12-18T13:25:35;-6.31;81.43
65291;SHT30;51893;59.754;10.110;2022-12-18T13:28:09;-6.23;82.14
65291;SHT30;51893;59.754;10.110;2022-12-18T13:31:15;-6.24;81.58
65291;SHT30;51893;59.754;10.110;2022-12-18T13:36:57;-6.44;82.14
65291;SHT30;51893;59.754;10.110;2022-12-18T13:48:58;-6.36;83.18
65291;SHT30;51893;59.754;10.110;2022-12-18T13:51:29;-6.27;83.31
65291;SHT30;51893;59.754;10.110;2022-12-18T13:57:25;-6.24;83.67
65291;SHT30;51893;59.754;10.110;2022-12-18T14:02:55;-6.31;83.25
65291;SHT30;51893;59.754;10.110;2022-12-18T14:08:04;-6.25;82.62
65291;SHT30;51893;59.754;10.110;2022-12-18T14:10:43;-6.30;82.25
65291;SHT30;51893;59.754;10.110;2022-12-18T14:16:18;-6.05;81.97
65291;SHT30;51893;59.754;10.110;2022-12-18T14:21:35;-6.17;80.89
65291;SHT30;51893;59.754;10.110;2022-12-18T14:26:54;-6.08;81.03
65291;SHT30;51893;59.754;10.110;2022-12-18T14:29:54;-6.06;81.05
65291;SHT30;51893;59.754;10.110;2022-12-18T14:32:27;-6.15;80.97
65291;SHT30;51893;59.754;10.110;2022-12-18T14:34:56;-6.25;81.03
65291;SHT30;51893;59.754;10.110;2022-12-18T14:37:28;-6.28;81.41
65291;SHT30;51893;59.754;10.110;2022-12-18T14:40:03;-6.28;81.84
65291;SHT30;51893;59.754;10.110;2022-12-18T14:42:40;-6.23;82.49
65291;SHT30;51893;59.754;10.110;2022-12-18T14:48:16;-6.10;83.84
65291;SHT30;51893;59.754;10.110;2022-12-18T14:50:58;-6.05;84.25
65291;SHT30;51893;59.754;10.110;2022-12-18T14:56:36;-5.97;84.20
65291;SHT30;51893;59.754;10.110;2022-12-18T14:59:19;-5.97;83.37
65291;SHT30;51893;59.754;10.110;2022-12-18T15:05:01;-5.99;81.74
65291;SHT30;51893;59.754;10.110;2022-12-18T15:07:58;-5.92;81.36
65291;SHT30;51893;59.754;10.110;2022-12-18T15:10:32;-5.93;80.96
65291;SHT30;51893;59.754;10.110;2022-12-18T15:13:08;-5.93;81.51
65291;SHT30;51893;59.754;10.110;2022-12-18T15:15:50;-5.95;81.17
65291;SHT30;51893;59.754;10.110;2022-12-18T15:18:29;-6.00;80.91
65291;SHT30;51893;59.754;10.110;2022-12-18T15:21:07;-6.00;80.70
65291;SHT30;51893;59.754;10.110;2022-12-18T15:26:12;-6.05;81.18
65291;SHT30;51893;59.754;10.110;2022-12-18T15:28:47;-6.01;82.02
65291;SHT30;51893;59.754;10.110;2022-12-18T15:31:24;-6.02;82.36
65291;SHT30;51893;59.754;10.110;2022-12-18T15:36:30;-5.91;83.93
65291;SHT30;51893;59.754;10.110;2022-12-18T15:38:57;-5.90;84.81
65291;SHT30;51893;59.754;10.110;2022-12-18T15:41:34;-5.86;84.70
65291;SHT30;51893;59.754;10.110;2022-12-18T15:44:38;-5.82;83.89
65291;SHT30;51893;59.754;10.110;2022-12-18T15:47:09;-5.73;82.92
65291;SHT30;51893;59.754;10.110;2022-12-18T15:49:47;-5.69;81.95
65291;SHT30;51893;59.754;10.110;2022-12-18T15:52:16;-5.70;81.34
65291;SHT30;51893;59.754;10.110;2022-12-18T15:54:55;-5.77;81.22
65291;SHT30;51893;59.754;10.110;2022-12-18T15:57:42;-5.74;81.69
65291;SHT30;51893;59.754;10.110;2022-12-18T16:00:11;-5.74;81.38
65291;SHT30;51893;59.754;10.110;2022-12-18T16:02:43;-5.75;81.60
65291;SHT30;51893;59.754;10.110;2022-12-18T16:05:14;-5.82;82.39
65291;SHT30;51893;59.754;10.110;2022-12-18T16:07:45;-5.99;83.72
65291;SHT30;51893;59.754;10.110;2022-12-18T16:10:15;-6.22;84.12
65291;SHT30;51893;59.754;10.110;2022-12-18T16:12:44;-6.39;83.65
65291;SHT30;51893;59.754;10.110;2022-12-18T16:15:15;-6.47;83.11
65291;SHT30;51893;59.754;10.110;2022-12-18T16:17:50;-6.50;82.74
65291;SHT30;51893;59.754;10.110;2022-12-18T16:20:19;-6.48;82.74
65291;SHT30;51893;59.754;10.110;2022-12-18T16:22:50;-6.38;82.78
65291;SHT30;51893;59.754;10.110;2022-12-18T16:25:21;-6.36;82.88
65291;SHT30;51893;59.754;10.110;2022-12-18T16:27:54;-6.32;83.02
65291;SHT30;51893;59.754;10.110;2022-12-18T16:30:25;-6.23;83.13
65291;SHT30;51893;59.754;10.110;2022-12-18T16:33:04;-6.17;83.66
65291;SHT30;51893;59.754;10.110;2022-12-18T16:35:34;-6.07;84.18
65291;SHT30;51893;59.754;10.110;2022-12-18T16:38:04;-5.94;84.34
65291;SHT30;51893;59.754;10.110;2022-12-18T16:40:32;-5.82;84.73
65291;SHT30;51893;59.754;10.110;2022-12-18T16:42:59;-5.80;84.80
65291;SHT30;51893;59.754;10.110;2022-12-18T16:45:37;-5.83;84.85
65291;SHT30;51893;59.754;10.110;2022-12-18T16:48:06;-5.83;84.93
65291;SHT30;51893;59.754;10.110;2022-12-18T16:50:36;-5.72;84.77
65291;SHT30;51893;59.754;10.110;2022-12-18T16:53:04;-5.80;83.92
65291;SHT30;51893;59.754;10.110;2022-12-18T16:55:36;-5.89;83.23
65291;SHT30;51893;59.754;10.110;2022-12-18T16:58:06;-5.87;82.71
65291;SHT30;51893;59.754;10.110;2022-12-18T17:00:32;-5.76;82.58
65291;SHT30;51893;59.754;10.110;2022-12-18T17:02:59;-5.67;82.29
65291;SHT30;51893;59.754;10.110;2022-12-18T17:05:29;-5.55;82.18
65291;SHT30;51893;59.754;10.110;2022-12-18T17:07:56;-5.53;81.69
65291;SHT30;51893;59.754;10.110;2022-12-18T17:10:22;-5.58;81.11
65291;SHT30;51893;59.754;10.110;2022-12-18T17:12:50;-5.61;80.84
65291;SHT30;51893;59.754;10.110;2022-12-18T17:15:18;-5.64;80.67
65291;SHT30;51893;59.754;10.110;2022-12-18T17:17:45;-5.76;80.45
65291;SHT30;51893;59.754;10.110;2022-12-18T17:20:13;-5.78;80.55
65291;SHT30;51893;59.754;10.110;2022-12-18T17:22:42;-5.86;80.39
65291;SHT30;51893;59.754;10.110;2022-12-18T17:25:15;-5.98;80.24
65291;SHT30;51893;59.754;10.110;2022-12-18T17:27:42;-6.08;80.32
65291;SHT30;51893;59.754;10.110;2022-12-18T17:30:11;-6.11;80.49
65291;SHT30;51893;59.754;10.110;2022-12-18T17:32:41;-6.13;81.19
65291;SHT30;51893;59.754;10.110;2022-12-18T17:35:08;-6.11;81.29
65291;SHT30;51893;59.754;10.110;2022-12-18T17:37:35;-6.10;81.61
65291;SHT30;51893;59.754;10.110;2022-12-18T17:40:03;-6.17;82.41
65291;SHT30;51893;59.754;10.110;2022-12-18T17:42:33;-6.19;82.40
65291;SHT30;51893;59.754;10.110;2022-12-18T17:45:02;-6.12;82.26
65291;SHT30;51893;59.754;10.110;2022-12-18T17:47:32;-6.05;82.24
65291;SHT30;51893;59.754;10.110;2022-12-18T17:50:00;-5.91;81.78
65291;SHT30;51893;59.754;10.110;2022-12-18T17:52:27;-5.79;81.08
65291;SHT30;51893;59.754;10.110;2022-12-18T17:54:53;-5.68;80.55
65291;SHT30;51893;59.754;10.110;2022-12-18T17:57:21;-5.53;79.88
65291;SHT30;51893;59.754;10.110;2022-12-18T17:59:50;-5.42;79.21
65291;SHT30;51893;59.754;10.110;2022-12-18T18:02:16;-5.38;78.39
65291;SHT30;51893;59.754;10.110;2022-12-18T18:04:45;-5.51;78.10
65291;SHT30;51893;59.754;10.110;2022-12-18T18:07:11;-5.68;78.11
65291;SHT30;51893;59.754;10.110;2022-12-18T18:09:38;-5.93;78.09
65291;SHT30;51893;59.754;10.110;2022-12-18T18:12:10;-6.07;78.49